sensor_id;sensor_type;location;lat;lon;timestamp;P1;durP1;ratioP1;P2;durP2;ratioP2
15693;SDS011;7947;48.834;9.132;2022-12-07T00:01:18;5.77;;;4.20;;
15693;SDS011;7947;48.834;9.132;2022-12-07T00:04:24;5.00;;;3.83;;
15693;SDS011;7947;48.834;9.132;2022-12-07T00:07:27;5.87;;;3.80;;
15693;SDS011;7947;48.834;9.132;2022-12-07T00:10:29;6.77;;;3.70;;
15693;SDS011;7947;48.834;9.132;2022-12-07T00:13:32;8.63;;;4.30;;
15693;SDS011;7947;48.834;9.132;2022-12-07T00:16:36;6.60;;;3.60;;
15693;SDS011;7947;48.834;9.132;2022-12-07T00:19:40;5.87;;;4.10;;
15693;SDS011;7947;48.834;9.132;2022-12-07T00:22:43;5.10;;;3.90;;
15693;SDS011;7947;48.834;9.132;2022-12-07T00:25:46;6.03;;;3.93;;
15693;SDS011;7947;48.834;9.132;2022-12-07T00:28:51;7.60;;;3.70;;
15693;SDS011;7947;48.834;9.132;2022-12-07T00:31:55;5.97;;;4.67;;
15693;SDS011;7947;48.834;9.132;2022-12-07T00:35:00;6.03;;;4.03;;
15693;SDS011;7947;48.834;9.132;2022-12-07T00:38:09;5.90;;;4.17;;
15693;SDS011;7947;48.834;9.132;2022-12-07T00:41:22;4.70;;;3.93;;
15693;SDS011;7947;48.834;9.132;2022-12-07T00:44:30;5.67;;;4.20;;
15693;SDS011;7947;48.834;9.132;2022-12-07T00:47:38;5.00;;;3.87;;
15693;SDS011;7947;48.834;9.132;2022-12-07T00:50:49;6.00;;;4.30;;
15693;SDS011;7947;48.834;9.132;2022-12-07T00:53:55;7.40;;;5.00;;
15693;SDS011;7947;48.834;9.132;2022-12-07T00:57:06;7.23;;;5.10;;
15693;SDS011;7947;48.834;9.132;2022-12-07T01:00:16;7.50;;;4.60;;
15693;SDS011;7947;48.834;9.132;2022-12-07T01:03:28;8.57;;;4.10;;
15693;SDS011;7947;48.834;9.132;2022-12-07T01:06:43;5.90;;;4.40;;
15693;SDS011;7947;48.834;9.132;2022-12-07T01:09:57;7.37;;;5.00;;
15693;SDS011;7947;48.834;9.132;2022-12-07T01:13:05;6.33;;;4.50;;
15693;SDS011;7947;48.834;9.132;2022-12-07T01:16:14;7.20;;;4.47;;
15693;SDS011;7947;48.834;9.132;2022-12-07T01:19:23;6.77;;;4.60;;
15693;SDS011;7947;48.834;9.132;2022-12-07T01:22:33;8.10;;;4.87;;
15693;SDS011;7947;48.834;9.132;2022-12-07T01:25:42;7.73;;;4.53;;
15693;SDS011;7947;48.834;9.132;2022-12-07T01:29:15;8.37;;;4.37;;
15693;SDS011;7947;48.834;9.132;2022-12-07T01:32:27;5.30;;;4.00;;
15693;SDS011;7947;48.834;9.132;2022-12-07T01:35:42;9.63;;;4.83;;
15693;SDS011;7947;48.834;9.132;2022-12-07T01:38:57;5.53;;;3.83;;
15693;SDS011;7947;48.834;9.132;2022-12-07T01:42:09;6.27;;;4.23;;
15693;SDS011;7947;48.834;9.132;2022-12-07T01:48:48;5.80;;;3.93;;
15693;SDS011;7947;48.834;9.132;2022-12-07T01:52:09;5.20;;;4.07;;
15693;SDS011;7947;48.834;9.132;2022-12-07T01:55:25;7.77;;;4.50;;
15693;SDS011;7947;48.834;9.132;2022-12-07T01:58:34;5.10;;;3.90;;
15693;SDS011;7947;48.834;9.132;2022-12-07T02:01:45;5.67;;;4.00;;
15693;SDS011;7947;48.834;9.132;2022-12-07T02:04:52;5.67;;;3.97;;
15693;SDS011;7947;48.834;9.132;2022-12-07T02:08:29;6.17;;;4.27;;
15693;SDS011;7947;48.834;9.132;2022-12-07T02:11:42;5.53;;;4.10;;
15693;SDS011;7947;48.834;9.132;2022-12-07T02:14:58;6.23;;;3.67;;
15693;SDS011;7947;48.834;9.132;2022-12-07T02:18:13;6.97;;;4.40;;
15693;SDS011;7947;48.834;9.132;2022-12-07T02:21:31;8.17;;;4.97;;
15693;SDS011;7947;48.834;9.132;2022-12-07T02:24:48;5.10;;;4.10;;
15693;SDS011;7947;48.834;9.132;2022-12-07T02:28:03;5.23;;;4.00;;
15693;SDS011;7947;48.834;9.132;2022-12-07T02:31:18;6.77;;;4.17;;
15693;SDS011;7947;48.834;9.132;2022-12-07T02:34:31;5.97;;;4.00;;
15693;SDS011;7947;48.834;9.132;2022-12-07T02:37:45;6.20;;;4.03;;
15693;SDS011;7947;48.834;9.132;2022-12-07T02:41:00;5.20;;;3.73;;
15693;SDS011;7947;48.834;9.132;2022-12-07T02:44:16;10.83;;;6.10;;
15693;SDS011;7947;48.834;9.132;2022-12-07T02:47:36;9.83;;;5.17;;
15693;SDS011;7947;48.834;9.132;2022-12-07T02:50:48;5.20;;;4.17;;
15693;SDS011;7947;48.834;9.132;2022-12-07T02:53:54;5.73;;;4.00;;
15693;SDS011;7947;48.834;9.132;2022-12-07T02:57:07;5.90;;;3.93;;
15693;SDS011;7947;48.834;9.132;2022-12-07T03:00:28;6.33;;;4.27;;
15693;SDS011;7947;48.834;9.132;2022-12-07T03:03:48;7.97;;;4.17;;
15693;SDS011;7947;48.834;9.132;2022-12-07T03:07:10;5.40;;;3.60;;
15693;SDS011;7947;48.834;9.132;2022-12-07T03:10:27;7.23;;;3.80;;
15693;SDS011;7947;48.834;9.132;2022-12-07T03:13:41;5.03;;;3.40;;
15693;SDS011;7947;48.834;9.132;2022-12-07T03:16:55;6.23;;;3.70;;
15693;SDS011;7947;48.834;9.132;2022-12-07T03:20:13;5.13;;;3.77;;
15693;SDS011;7947;48.834;9.132;2022-12-07T03:23:24;4.70;;;2.87;;
15693;SDS011;7947;48.834;9.132;2022-12-07T03:26:36;3.53;;;3.13;;
15693;SDS011;7947;48.834;9.132;2022-12-07T03:29:49;5.87;;;3.87;;
15693;SDS011;7947;48.834;9.132;2022-12-07T03:33:03;6.27;;;3.77;;
15693;SDS011;7947;48.834;9.132;2022-12-07T03:36:17;5.83;;;3.53;;
15693;SDS011;7947;48.834;9.132;2022-12-07T03:39:44;5.30;;;2.97;;
15693;SDS011;7947;48.834;9.132;2022-12-07T03:43:14;5.23;;;3.40;;
15693;SDS011;7947;48.834;9.132;2022-12-07T03:46:26;4.63;;;3.97;;
15693;SDS011;7947;48.834;9.132;2022-12-07T03:49:43;4.57;;;3.30;;
15693;SDS011;7947;48.834;9.132;2022-12-07T03:53:15;4.33;;;3.27;;
15693;SDS011;7947;48.834;9.132;2022-12-07T03:56:26;4.43;;;3.53;;
15693;SDS011;7947;48.834;9.132;2022-12-07T03:59:44;4.87;;;3.57;;
15693;SDS011;7947;48.834;9.132;2022-12-07T04:02:53;6.77;;;4.10;;
15693;SDS011;7947;48.834;9.132;2022-12-07T04:06:07;5.40;;;3.60;;
15693;SDS011;7947;48.834;9.132;2022-12-07T04:09:21;6.30;;;4.23;;
15693;SDS011;7947;48.834;9.132;2022-12-07T04:12:32;6.47;;;4.30;;
15693;SDS011;7947;48.834;9.132;2022-12-07T04:15:42;5.80;;;4.03;;
15693;SDS011;7947;48.834;9.132;2022-12-07T04:18:51;8.77;;;5.37;;
15693;SDS011;7947;48.834;9.132;2022-12-07T04:22:03;7.00;;;5.23;;
15693;SDS011;7947;48.834;9.132;2022-12-07T04:25:20;8.23;;;5.20;;
15693;SDS011;7947;48.834;9.132;2022-12-07T04:28:29;6.20;;;4.40;;
15693;SDS011;7947;48.834;9.132;2022-12-07T04:31:42;6.67;;;4.17;;
15693;SDS011;7947;48.834;9.132;2022-12-07T04:34:55;6.30;;;3.70;;
15693;SDS011;7947;48.834;9.132;2022-12-07T04:38:17;7.07;;;4.27;;
15693;SDS011;7947;48.834;9.132;2022-12-07T04:41:32;5.10;;;3.57;;
15693;SDS011;7947;48.834;9.132;2022-12-07T04:44:48;6.10;;;3.00;;
15693;SDS011;7947;48.834;9.132;2022-12-07T04:48:10;7.30;;;4.33;;
15693;SDS011;7947;48.834;9.132;2022-12-07T04:51:21;6.07;;;3.40;;
15693;SDS011;7947;48.834;9.132;2022-12-07T04:54:28;4.30;;;3.20;;
15693;SDS011;7947;48.834;9.132;2022-12-07T04:57:42;3.60;;;2.57;;
15693;SDS011;7947;48.834;9.132;2022-12-07T05:00:54;3.43;;;2.70;;
15693;SDS011;7947;48.834;9.132;2022-12-07T05:04:12;4.30;;;2.63;;
15693;SDS011;7947;48.834;9.132;2022-12-07T05:07:31;4.37;;;2.80;;
15693;SDS011;7947;48.834;9.132;2022-12-07T05:10:45;5.27;;;2.90;;
15693;SDS011;7947;48.834;9.132;2022-12-07T05:14:04;4.60;;;3.50;;
15693;SDS011;7947;48.834;9.132;2022-12-07T05:17:13;6.57;;;3.80;;
15693;SDS011;7947;48.834;9.132;2022-12-07T05:20:21;4.90;;;3.47;;
15693;SDS011;7947;48.834;9.132;2022-12-07T05:23:28;7.43;;;3.60;;
15693;SDS011;7947;48.834;9.132;2022-12-07T05:26:36;4.40;;;3.13;;
15693;SDS011;7947;48.834;9.132;2022-12-07T05:29:46;7.03;;;3.53;;
15693;SDS011;7947;48.834;9.132;2022-12-07T05:32:58;5.83;;;3.57;;
15693;SDS011;7947;48.834;9.132;2022-12-07T05:36:05;3.50;;;2.77;;
15693;SDS011;7947;48.834;9.132;2022-12-07T05:39:14;4.50;;;3.30;;
15693;SDS011;7947;48.834;9.132;2022-12-07T05:42:22;4.20;;;3.20;;
15693;SDS011;7947;48.834;9.132;2022-12-07T05:45:36;5.50;;;4.10;;
15693;SDS011;7947;48.834;9.132;2022-12-07T05:48:43;4.80;;;3.07;;
15693;SDS011;7947;48.834;9.132;2022-12-07T05:51:51;5.70;;;3.47;;
15693;SDS011;7947;48.834;9.132;2022-12-07T05:54:57;5.20;;;3.10;;
15693;SDS011;7947;48.834;9.132;2022-12-07T05:58:06;6.33;;;3.63;;
15693;SDS011;7947;48.834;9.132;2022-12-07T06:01:31;7.27;;;3.93;;
15693;SDS011;7947;48.834;9.132;2022-12-07T06:04:38;3.70;;;2.60;;
15693;SDS011;7947;48.834;9.132;2022-12-07T06:07:46;4.27;;;3.03;;
15693;SDS011;7947;48.834;9.132;2022-12-07T06:10:55;5.43;;;3.63;;
15693;SDS011;7947;48.834;9.132;2022-12-07T06:14:14;6.23;;;4.13;;
15693;SDS011;7947;48.834;9.132;2022-12-07T06:17:25;7.00;;;3.93;;
15693;SDS011;7947;48.834;9.132;2022-12-07T06:20:32;6.57;;;4.53;;
15693;SDS011;7947;48.834;9.132;2022-12-07T06:23:41;8.63;;;3.60;;
15693;SDS011;7947;48.834;9.132;2022-12-07T06:26:47;7.10;;;3.73;;
15693;SDS011;7947;48.834;9.132;2022-12-07T06:29:55;6.50;;;3.53;;
15693;SDS011;7947;48.834;9.132;2022-12-07T06:33:10;6.83;;;3.90;;
15693;SDS011;7947;48.834;9.132;2022-12-07T06:36:17;6.40;;;3.83;;
15693;SDS011;7947;48.834;9.132;2022-12-07T06:39:28;6.03;;;3.57;;
15693;SDS011;7947;48.834;9.132;2022-12-07T06:42:35;7.50;;;3.70;;
15693;SDS011;7947;48.834;9.132;2022-12-07T06:45:42;5.57;;;3.93;;
15693;SDS011;7947;48.834;9.132;2022-12-07T06:48:55;6.97;;;4.23;;
15693;SDS011;7947;48.834;9.132;2022-12-07T06:52:02;4.47;;;3.47;;
15693;SDS011;7947;48.834;9.132;2022-12-07T06:55:09;6.40;;;4.00;;
15693;SDS011;7947;48.834;9.132;2022-12-07T06:58:18;6.47;;;3.67;;
15693;SDS011;7947;48.834;9.132;2022-12-07T07:01:29;4.90;;;3.43;;
15693;SDS011;7947;48.834;9.132;2022-12-07T07:04:39;5.40;;;2.90;;
15693;SDS011;7947;48.834;9.132;2022-12-07T07:07:48;3.83;;;2.90;;
15693;SDS011;7947;48.834;9.132;2022-12-07T07:11:18;6.97;;;3.50;;
15693;SDS011;7947;48.834;9.132;2022-12-07T07:14:25;4.07;;;2.80;;
15693;SDS011;7947;48.834;9.132;2022-12-07T07:17:31;5.00;;;3.70;;
15693;SDS011;7947;48.834;9.132;2022-12-07T07:20:37;4.03;;;2.97;;
15693;SDS011;7947;48.834;9.132;2022-12-07T07:23:42;4.20;;;2.97;;
15693;SDS011;7947;48.834;9.132;2022-12-07T07:26:48;4.77;;;3.13;;
15693;SDS011;7947;48.834;9.132;2022-12-07T07:29:57;5.80;;;3.63;;
15693;SDS011;7947;48.834;9.132;2022-12-07T07:33:04;5.57;;;3.90;;
15693;SDS011;7947;48.834;9.132;2022-12-07T07:36:13;3.73;;;3.00;;
15693;SDS011;7947;48.834;9.132;2022-12-07T07:39:23;4.13;;;3.20;;
15693;SDS011;7947;48.834;9.132;2022-12-07T07:42:29;5.93;;;3.13;;
15693;SDS011;7947;48.834;9.132;2022-12-07T07:45:36;6.97;;;3.50;;
15693;SDS011;7947;48.834;9.132;2022-12-07T07:48:42;5.47;;;2.87;;
15693;SDS011;7947;48.834;9.132;2022-12-07T07:51:52;3.17;;;2.47;;
15693;SDS011;7947;48.834;9.132;2022-12-07T07:54:58;3.60;;;2.60;;
15693;SDS011;7947;48.834;9.132;2022-12-07T07:58:05;4.87;;;3.00;;
15693;SDS011;7947;48.834;9.132;2022-12-07T08:01:12;4.83;;;3.07;;
15693;SDS011;7947;48.834;9.132;2022-12-07T08:04:20;4.20;;;2.90;;
15693;SDS011;7947;48.834;9.132;2022-12-07T08:07:28;4.67;;;2.77;;
15693;SDS011;7947;48.834;9.132;2022-12-07T08:10:41;5.57;;;3.50;;
15693;SDS011;7947;48.834;9.132;2022-12-07T08:13:47;5.20;;;2.90;;
15693;SDS011;7947;48.834;9.132;2022-12-07T08:16:53;5.63;;;3.00;;
15693;SDS011;7947;48.834;9.132;2022-12-07T08:20:02;5.87;;;3.53;;
15693;SDS011;7947;48.834;9.132;2022-12-07T08:23:14;4.30;;;2.93;;
15693;SDS011;7947;48.834;9.132;2022-12-07T08:26:34;4.87;;;3.13;;
15693;SDS011;7947;48.834;9.132;2022-12-07T08:29:40;3.97;;;3.07;;
15693;SDS011;7947;48.834;9.132;2022-12-07T08:32:47;5.50;;;3.50;;
15693;SDS011;7947;48.834;9.132;2022-12-07T08:36:00;4.70;;;2.73;;
15693;SDS011;7947;48.834;9.132;2022-12-07T08:39:12;6.97;;;3.27;;
15693;SDS011;7947;48.834;9.132;2022-12-07T08:42:34;4.53;;;2.77;;
15693;SDS011;7947;48.834;9.132;2022-12-07T08:45:42;4.80;;;2.73;;
15693;SDS011;7947;48.834;9.132;2022-12-07T08:48:52;3.47;;;2.80;;
15693;SDS011;7947;48.834;9.132;2022-12-07T08:52:10;4.23;;;3.23;;
15693;SDS011;7947;48.834;9.132;2022-12-07T08:55:20;3.93;;;2.37;;
15693;SDS011;7947;48.834;9.132;2022-12-07T08:58:26;3.97;;;3.00;;
15693;SDS011;7947;48.834;9.132;2022-12-07T09:01:29;4.87;;;3.40;;
15693;SDS011;7947;48.834;9.132;2022-12-07T09:04:35;5.87;;;2.87;;
15693;SDS011;7947;48.834;9.132;2022-12-07T09:07:38;3.97;;;3.20;;
15693;SDS011;7947;48.834;9.132;2022-12-07T09:10:43;4.20;;;2.43;;
15693;SDS011;7947;48.834;9.132;2022-12-07T09:13:47;6.10;;;2.70;;
15693;SDS011;7947;48.834;9.132;2022-12-07T09:16:51;4.13;;;2.60;;
15693;SDS011;7947;48.834;9.132;2022-12-07T09:19:54;4.97;;;2.57;;
15693;SDS011;7947;48.834;9.132;2022-12-07T09:22:58;5.37;;;3.47;;
15693;SDS011;7947;48.834;9.132;2022-12-07T09:26:03;4.40;;;2.80;;
15693;SDS011;7947;48.834;9.132;2022-12-07T09:29:11;3.40;;;2.40;;
15693;SDS011;7947;48.834;9.132;2022-12-07T09:32:14;4.07;;;2.27;;
15693;SDS011;7947;48.834;9.132;2022-12-07T09:35:19;3.23;;;2.47;;
15693;SDS011;7947;48.834;9.132;2022-12-07T09:38:23;4.87;;;2.50;;
15693;SDS011;7947;48.834;9.132;2022-12-07T09:41:30;4.93;;;2.27;;
15693;SDS011;7947;48.834;9.132;2022-12-07T09:44:34;2.60;;;2.10;;
15693;SDS011;7947;48.834;9.132;2022-12-07T09:47:39;5.73;;;2.50;;
15693;SDS011;7947;48.834;9.132;2022-12-07T09:50:42;2.83;;;2.20;;
15693;SDS011;7947;48.834;9.132;2022-12-07T09:53:45;5.27;;;2.50;;
15693;SDS011;7947;48.834;9.132;2022-12-07T09:56:53;3.17;;;1.83;;
15693;SDS011;7947;48.834;9.132;2022-12-07T09:59:59;2.33;;;1.80;;
15693;SDS011;7947;48.834;9.132;2022-12-07T10:03:07;2.77;;;1.90;;
15693;SDS011;7947;48.834;9.132;2022-12-07T10:06:15;2.87;;;2.00;;
15693;SDS011;7947;48.834;9.132;2022-12-07T10:09:19;3.87;;;2.30;;
15693;SDS011;7947;48.834;9.132;2022-12-07T10:12:25;2.97;;;2.20;;
15693;SDS011;7947;48.834;9.132;2022-12-07T10:15:46;3.83;;;2.53;;
15693;SDS011;7947;48.834;9.132;2022-12-07T10:18:53;3.00;;;2.33;;
15693;SDS011;7947;48.834;9.132;2022-12-07T10:22:01;3.33;;;2.53;;
15693;SDS011;7947;48.834;9.132;2022-12-07T10:25:07;3.47;;;2.33;;
15693;SDS011;7947;48.834;9.132;2022-12-07T10:28:16;3.23;;;2.10;;
15693;SDS011;7947;48.834;9.132;2022-12-07T10:31:26;2.50;;;1.90;;
15693;SDS011;7947;48.834;9.132;2022-12-07T10:34:35;7.07;;;2.47;;
15693;SDS011;7947;48.834;9.132;2022-12-07T10:37:46;2.63;;;1.77;;
15693;SDS011;7947;48.834;9.132;2022-12-07T10:41:03;2.63;;;1.80;;
15693;SDS011;7947;48.834;9.132;2022-12-07T10:44:19;2.17;;;1.80;;
15693;SDS011;7947;48.834;9.132;2022-12-07T10:47:31;2.27;;;1.70;;
15693;SDS011;7947;48.834;9.132;2022-12-07T10:50:57;2.07;;;1.30;;
15693;SDS011;7947;48.834;9.132;2022-12-07T10:54:15;1.27;;;1.00;;
15693;SDS011;7947;48.834;9.132;2022-12-07T10:57:32;1.80;;;1.20;;
15693;SDS011;7947;48.834;9.132;2022-12-07T11:00:53;1.87;;;1.20;;
15693;SDS011;7947;48.834;9.132;2022-12-07T11:04:10;1.70;;;1.30;;
15693;SDS011;7947;48.834;9.132;2022-12-07T11:07:25;2.20;;;1.40;;
15693;SDS011;7947;48.834;9.132;2022-12-07T11:10:44;1.50;;;1.27;;
15693;SDS011;7947;48.834;9.132;2022-12-07T11:14:04;1.40;;;1.10;;
15693;SDS011;7947;48.834;9.132;2022-12-07T11:17:23;1.03;;;0.93;;
15693;SDS011;7947;48.834;9.132;2022-12-07T11:20:41;1.47;;;1.00;;
15693;SDS011;7947;48.834;9.132;2022-12-07T11:23:53;2.90;;;1.40;;
15693;SDS011;7947;48.834;9.132;2022-12-07T11:27:12;1.20;;;1.03;;
15693;SDS011;7947;48.834;9.132;2022-12-07T11:30:30;3.03;;;1.53;;
15693;SDS011;7947;48.834;9.132;2022-12-07T11:33:45;3.43;;;2.10;;
15693;SDS011;7947;48.834;9.132;2022-12-07T11:36:59;2.33;;;1.83;;
15693;SDS011;7947;48.834;9.132;2022-12-07T11:40:13;7.43;;;2.63;;
15693;SDS011;7947;48.834;9.132;2022-12-07T11:43:26;4.17;;;2.40;;
15693;SDS011;7947;48.834;9.132;2022-12-07T11:46:39;4.83;;;3.10;;
15693;SDS011;7947;48.834;9.132;2022-12-07T11:49:56;3.73;;;2.40;;
15693;SDS011;7947;48.834;9.132;2022-12-07T11:53:14;4.13;;;2.97;;
15693;SDS011;7947;48.834;9.132;2022-12-07T11:56:21;3.20;;;2.20;;
15693;SDS011;7947;48.834;9.132;2022-12-07T11:59:29;5.00;;;2.33;;
15693;SDS011;7947;48.834;9.132;2022-12-07T12:02:41;3.50;;;2.67;;
15693;SDS011;7947;48.834;9.132;2022-12-07T12:05:52;5.50;;;3.23;;
15693;SDS011;7947;48.834;9.132;2022-12-07T12:08:58;4.20;;;2.60;;
15693;SDS011;7947;48.834;9.132;2022-12-07T12:16:20;3.93;;;2.73;;
15693;SDS011;7947;48.834;9.132;2022-12-07T12:19:40;4.13;;;2.90;;
15693;SDS011;7947;48.834;9.132;2022-12-07T12:22:47;4.80;;;3.20;;
15693;SDS011;7947;48.834;9.132;2022-12-07T12:25:56;3.70;;;2.17;;
15693;SDS011;7947;48.834;9.132;2022-12-07T12:29:04;5.20;;;3.27;;
15693;SDS011;7947;48.834;9.132;2022-12-07T12:32:14;3.73;;;2.83;;
15693;SDS011;7947;48.834;9.132;2022-12-07T12:35:21;4.70;;;2.93;;
15693;SDS011;7947;48.834;9.132;2022-12-07T12:38:34;6.13;;;3.37;;
15693;SDS011;7947;48.834;9.132;2022-12-07T12:41:54;5.87;;;3.47;;
15693;SDS011;7947;48.834;9.132;2022-12-07T12:45:19;4.73;;;2.70;;
15693;SDS011;7947;48.834;9.132;2022-12-07T12:48:27;3.17;;;2.33;;
15693;SDS011;7947;48.834;9.132;2022-12-07T12:51:37;5.07;;;3.40;;
15693;SDS011;7947;48.834;9.132;2022-12-07T12:54:57;6.23;;;3.00;;
15693;SDS011;7947;48.834;9.132;2022-12-07T13:01:41;3.10;;;2.30;;
15693;SDS011;7947;48.834;9.132;2022-12-07T13:04:50;4.23;;;2.47;;
15693;SDS011;7947;48.834;9.132;2022-12-07T13:07:59;3.37;;;2.80;;
15693;SDS011;7947;48.834;9.132;2022-12-07T13:11:17;3.50;;;2.77;;
15693;SDS011;7947;48.834;9.132;2022-12-07T13:14:51;4.83;;;3.30;;
15693;SDS011;7947;48.834;9.132;2022-12-07T13:18:00;6.03;;;3.40;;
15693;SDS011;7947;48.834;9.132;2022-12-07T13:24:46;5.13;;;3.27;;
15693;SDS011;7947;48.834;9.132;2022-12-07T13:27:54;5.03;;;3.07;;
15693;SDS011;7947;48.834;9.132;2022-12-07T13:31:03;4.97;;;3.33;;
15693;SDS011;7947;48.834;9.132;2022-12-07T13:34:30;5.07;;;3.50;;
15693;SDS011;7947;48.834;9.132;2022-12-07T13:37:34;4.67;;;2.80;;
15693;SDS011;7947;48.834;9.132;2022-12-07T13:40:39;3.93;;;3.00;;
15693;SDS011;7947;48.834;9.132;2022-12-07T13:43:44;6.80;;;3.50;;
15693;SDS011;7947;48.834;9.132;2022-12-07T13:46:57;4.47;;;3.40;;
15693;SDS011;7947;48.834;9.132;2022-12-07T13:50:21;4.83;;;3.30;;
15693;SDS011;7947;48.834;9.132;2022-12-07T13:53:25;9.47;;;4.67;;
15693;SDS011;7947;48.834;9.132;2022-12-07T13:56:32;6.80;;;3.93;;
15693;SDS011;7947;48.834;9.132;2022-12-07T13:59:38;6.17;;;3.70;;
15693;SDS011;7947;48.834;9.132;2022-12-07T14:02:53;6.97;;;4.23;;
15693;SDS011;7947;48.834;9.132;2022-12-07T14:06:03;6.30;;;3.73;;
15693;SDS011;7947;48.834;9.132;2022-12-07T14:09:19;6.27;;;4.00;;
15693;SDS011;7947;48.834;9.132;2022-12-07T14:12:24;5.93;;;4.03;;
15693;SDS011;7947;48.834;9.132;2022-12-07T14:15:31;8.13;;;5.20;;
15693;SDS011;7947;48.834;9.132;2022-12-07T14:18:36;5.17;;;3.33;;
15693;SDS011;7947;48.834;9.132;2022-12-07T14:21:41;4.33;;;3.03;;
15693;SDS011;7947;48.834;9.132;2022-12-07T14:24:44;6.30;;;3.07;;
15693;SDS011;7947;48.834;9.132;2022-12-07T14:27:48;5.13;;;3.53;;
15693;SDS011;7947;48.834;9.132;2022-12-07T14:30:55;4.27;;;3.00;;
15693;SDS011;7947;48.834;9.132;2022-12-07T14:33:58;4.70;;;3.13;;
15693;SDS011;7947;48.834;9.132;2022-12-07T14:37:06;4.33;;;3.53;;
15693;SDS011;7947;48.834;9.132;2022-12-07T14:40:12;4.53;;;2.90;;
15693;SDS011;7947;48.834;9.132;2022-12-07T14:43:17;6.30;;;3.13;;
15693;SDS011;7947;48.834;9.132;2022-12-07T14:46:22;7.20;;;3.93;;
15693;SDS011;7947;48.834;9.132;2022-12-07T14:49:25;5.10;;;3.83;;
15693;SDS011;7947;48.834;9.132;2022-12-07T14:52:35;6.70;;;3.83;;
15693;SDS011;7947;48.834;9.132;2022-12-07T14:55:58;5.43;;;3.07;;
15693;SDS011;7947;48.834;9.132;2022-12-07T14:59:01;5.97;;;3.73;;
15693;SDS011;7947;48.834;9.132;2022-12-07T15:02:06;5.63;;;3.63;;
15693;SDS011;7947;48.834;9.132;2022-12-07T15:05:11;5.50;;;3.37;;
15693;SDS011;7947;48.834;9.132;2022-12-07T15:08:17;6.13;;;3.67;;
15693;SDS011;7947;48.834;9.132;2022-12-07T15:11:20;6.17;;;3.63;;
15693;SDS011;7947;48.834;9.132;2022-12-07T15:14:23;9.93;;;4.40;;
15693;SDS011;7947;48.834;9.132;2022-12-07T15:17:27;6.50;;;4.20;;
15693;SDS011;7947;48.834;9.132;2022-12-07T15:20:32;7.20;;;4.20;;
15693;SDS011;7947;48.834;9.132;2022-12-07T15:23:35;8.43;;;5.27;;
15693;SDS011;7947;48.834;9.132;2022-12-07T15:26:38;8.30;;;4.73;;
15693;SDS011;7947;48.834;9.132;2022-12-07T15:29:42;9.07;;;4.87;;
15693;SDS011;7947;48.834;9.132;2022-12-07T15:32:49;8.17;;;5.40;;
15693;SDS011;7947;48.834;9.132;2022-12-07T15:35:53;8.17;;;5.33;;
15693;SDS011;7947;48.834;9.132;2022-12-07T15:38:56;7.40;;;4.77;;
15693;SDS011;7947;48.834;9.132;2022-12-07T15:42:15;21.07;;;8.97;;
15693;SDS011;7947;48.834;9.132;2022-12-07T15:45:18;26.07;;;11.07;;
15693;SDS011;7947;48.834;9.132;2022-12-07T15:48:22;10.97;;;6.40;;
15693;SDS011;7947;48.834;9.132;2022-12-07T15:51:29;14.13;;;5.60;;
15693;SDS011;7947;48.834;9.132;2022-12-07T15:54:32;11.27;;;5.87;;
15693;SDS011;7947;48.834;9.132;2022-12-07T15:57:36;10.10;;;5.40;;
15693;SDS011;7947;48.834;9.132;2022-12-07T16:00:40;9.57;;;5.77;;
15693;SDS011;7947;48.834;9.132;2022-12-07T16:03:44;24.30;;;10.67;;
15693;SDS011;7947;48.834;9.132;2022-12-07T16:06:49;13.00;;;6.47;;
15693;SDS011;7947;48.834;9.132;2022-12-07T16:09:52;25.30;;;11.63;;
15693;SDS011;7947;48.834;9.132;2022-12-07T16:12:55;11.73;;;7.20;;
15693;SDS011;7947;48.834;9.132;2022-12-07T16:16:01;11.17;;;6.30;;
15693;SDS011;7947;48.834;9.132;2022-12-07T16:19:08;11.40;;;6.73;;
15693;SDS011;7947;48.834;9.132;2022-12-07T16:22:12;11.03;;;6.40;;
15693;SDS011;7947;48.834;9.132;2022-12-07T16:25:15;11.37;;;6.67;;
15693;SDS011;7947;48.834;9.132;2022-12-07T16:28:18;9.33;;;5.53;;
15693;SDS011;7947;48.834;9.132;2022-12-07T16:31:21;8.93;;;5.93;;
15693;SDS011;7947;48.834;9.132;2022-12-07T16:34:27;11.10;;;5.80;;
15693;SDS011;7947;48.834;9.132;2022-12-07T16:37:31;10.57;;;5.07;;
15693;SDS011;7947;48.834;9.132;2022-12-07T16:40:33;9.00;;;5.77;;
15693;SDS011;7947;48.834;9.132;2022-12-07T16:43:36;9.13;;;5.53;;
15693;SDS011;7947;48.834;9.132;2022-12-07T16:46:40;10.20;;;6.07;;
15693;SDS011;7947;48.834;9.132;2022-12-07T16:49:45;10.33;;;5.73;;
15693;SDS011;7947;48.834;9.132;2022-12-07T16:52:48;11.40;;;6.07;;
15693;SDS011;7947;48.834;9.132;2022-12-07T16:55:53;10.80;;;5.83;;
15693;SDS011;7947;48.834;9.132;2022-12-07T16:58:57;9.53;;;5.60;;
15693;SDS011;7947;48.834;9.132;2022-12-07T17:02:00;13.90;;;6.53;;
15693;SDS011;7947;48.834;9.132;2022-12-07T17:05:05;9.70;;;6.50;;
15693;SDS011;7947;48.834;9.132;2022-12-07T17:08:08;10.67;;;6.57;;
15693;SDS011;7947;48.834;9.132;2022-12-07T17:11:12;7.17;;;4.93;;
15693;SDS011;7947;48.834;9.132;2022-12-07T17:14:16;8.33;;;4.90;;
15693;SDS011;7947;48.834;9.132;2022-12-07T17:17:37;8.20;;;5.00;;
15693;SDS011;7947;48.834;9.132;2022-12-07T17:20:41;6.27;;;4.03;;
15693;SDS011;7947;48.834;9.132;2022-12-07T17:23:44;8.87;;;5.13;;
15693;SDS011;7947;48.834;9.132;2022-12-07T17:26:48;8.90;;;5.23;;
15693;SDS011;7947;48.834;9.132;2022-12-07T17:29:51;8.43;;;5.60;;
15693;SDS011;7947;48.834;9.132;2022-12-07T17:32:54;8.70;;;5.57;;
15693;SDS011;7947;48.834;9.132;2022-12-07T17:35:58;8.57;;;5.07;;
15693;SDS011;7947;48.834;9.132;2022-12-07T17:39:01;8.03;;;5.27;;
15693;SDS011;7947;48.834;9.132;2022-12-07T17:42:09;9.63;;;5.67;;
15693;SDS011;7947;48.834;9.132;2022-12-07T17:45:30;7.50;;;4.63;;
15693;SDS011;7947;48.834;9.132;2022-12-07T17:48:32;8.43;;;5.10;;
15693;SDS011;7947;48.834;9.132;2022-12-07T17:51:37;12.13;;;5.77;;
15693;SDS011;7947;48.834;9.132;2022-12-07T17:54:57;7.50;;;4.90;;
15693;SDS011;7947;48.834;9.132;2022-12-07T17:58:01;10.40;;;5.57;;
15693;SDS011;7947;48.834;9.132;2022-12-07T18:01:07;10.37;;;5.47;;
15693;SDS011;7947;48.834;9.132;2022-12-07T18:04:10;8.37;;;5.07;;
15693;SDS011;7947;48.834;9.132;2022-12-07T18:07:14;9.07;;;5.63;;
15693;SDS011;7947;48.834;9.132;2022-12-07T18:10:18;11.07;;;5.93;;
15693;SDS011;7947;48.834;9.132;2022-12-07T18:13:21;7.80;;;5.33;;
15693;SDS011;7947;48.834;9.132;2022-12-07T18:16:38;11.53;;;6.33;;
15693;SDS011;7947;48.834;9.132;2022-12-07T18:19:42;9.57;;;6.20;;
15693;SDS011;7947;48.834;9.132;2022-12-07T18:22:46;7.80;;;5.07;;
15693;SDS011;7947;48.834;9.132;2022-12-07T18:25:50;8.27;;;5.23;;
15693;SDS011;7947;48.834;9.132;2022-12-07T18:28:54;9.57;;;5.37;;
15693;SDS011;7947;48.834;9.132;2022-12-07T18:31:57;9.17;;;5.73;;
15693;SDS011;7947;48.834;9.132;2022-12-07T18:35:00;10.20;;;5.97;;
15693;SDS011;7947;48.834;9.132;2022-12-07T18:38:05;8.53;;;5.80;;
15693;SDS011;7947;48.834;9.132;2022-12-07T18:41:08;6.63;;;4.27;;
15693;SDS011;7947;48.834;9.132;2022-12-07T18:44:12;7.07;;;4.80;;
15693;SDS011;7947;48.834;9.132;2022-12-07T18:47:17;8.60;;;4.73;;
15693;SDS011;7947;48.834;9.132;2022-12-07T18:50:20;22.20;;;10.70;;
15693;SDS011;7947;48.834;9.132;2022-12-07T18:53:25;20.10;;;10.97;;
15693;SDS011;7947;48.834;9.132;2022-12-07T18:56:28;12.93;;;7.60;;
15693;SDS011;7947;48.834;9.132;2022-12-07T18:59:32;12.17;;;6.37;;
15693;SDS011;7947;48.834;9.132;2022-12-07T19:02:48;9.63;;;6.20;;
15693;SDS011;7947;48.834;9.132;2022-12-07T19:05:51;7.87;;;6.07;;
15693;SDS011;7947;48.834;9.132;2022-12-07T19:08:59;7.20;;;5.50;;
15693;SDS011;7947;48.834;9.132;2022-12-07T19:12:02;7.97;;;5.30;;
15693;SDS011;7947;48.834;9.132;2022-12-07T19:15:06;8.17;;;5.27;;
15693;SDS011;7947;48.834;9.132;2022-12-07T19:18:10;8.53;;;5.30;;
15693;SDS011;7947;48.834;9.132;2022-12-07T19:21:13;9.60;;;5.80;;
15693;SDS011;7947;48.834;9.132;2022-12-07T19:24:17;9.93;;;5.43;;
15693;SDS011;7947;48.834;9.132;2022-12-07T19:27:24;9.60;;;6.53;;
15693;SDS011;7947;48.834;9.132;2022-12-07T19:30:27;9.57;;;5.80;;
15693;SDS011;7947;48.834;9.132;2022-12-07T19:33:30;8.63;;;5.57;;